Terminal Aerodrome Forecast
Issued by NWS

Home | Current Version | Previous Version | Text Only | Print | Product List | Glossary On
Versions: 1 2 3 4 5 6 7 8 9 10 11 12 13 14 15 16 17 18 19 20 21 22 23
000
FTUS44 KOUN 181746
TAFHBR
TAF
KHBR 181746Z 1818/1918 00000KT P6SM BKN006 OVC020
     FM190600 04006KT 4SM BR OVC004
      TEMPO 1909/1913 1SM BR OVC004
     FM191500 12005KT 4SM BR OVC005=

USA.gov is the U.S. government's official web portal to all federal, state and local government web resources and services.